createdAt,value
2023-01-29T00:02:57.079Z,101246.98
2023-01-29T00:06:06.688Z,101243.07
2023-01-29T00:09:11.436Z,101237.18
2023-01-29T00:12:15.368Z,101239.23
2023-01-29T00:15:20.732Z,101233.71
2023-01-29T00:18:25.629Z,101229.85
2023-01-29T00:21:31.137Z,101223.58
2023-01-29T00:24:35.323Z,101225.34
2023-01-29T00:27:39.339Z,101228.11
2023-01-29T00:30:43.354Z,101217.36
2023-01-29T00:33:48.613Z,101205.59
2023-01-29T00:36:52.590Z,101206.27
2023-01-29T00:39:56.881Z,101207.89
2023-01-29T00:43:19.457Z,101210.77
2023-01-29T00:46:23.540Z,101202.73
2023-01-29T00:49:27.909Z,101205.09
2023-01-29T00:52:33.377Z,101205.91
2023-01-29T00:55:37.272Z,101208.45
2023-01-29T00:58:41.824Z,101206.52
2023-01-29T01:02:04.620Z,101207.61
2023-01-29T01:05:14.207Z,101201.69
2023-01-29T01:08:36.760Z,101196.77
2023-01-29T01:11:40.610Z,101188.56
2023-01-29T01:14:44.596Z,101179.95
2023-01-29T01:17:55.782Z,101173.37
2023-01-29T01:20:59.771Z,101163.45
2023-01-29T01:24:05.878Z,101160.88
2023-01-29T01:27:09.852Z,101163.36
2023-01-29T01:30:16.576Z,101151.85
2023-01-29T01:33:20.807Z,101151.90
2023-01-29T01:36:24.738Z,101153.70
2023-01-29T01:39:28.693Z,101161.07
2023-01-29T01:42:33.854Z,101154.48
2023-01-29T01:45:40.745Z,101150.13
2023-01-29T01:48:49.130Z,101154.52
2023-01-29T01:51:53.367Z,101147.84
2023-01-29T01:54:58.921Z,101147.61
2023-01-29T01:58:26.486Z,101145.60
2023-01-29T02:01:30.500Z,101149.02
2023-01-29T02:04:53.362Z,101150.30
2023-01-29T02:08:17.670Z,101153.27
2023-01-29T02:11:22.411Z,101152.18
2023-01-29T02:14:26.911Z,101155.79
2023-01-29T02:17:32.053Z,101155.41
2023-01-29T02:20:38.226Z,101161.44
2023-01-29T02:24:11.474Z,101162.12
2023-01-29T02:27:21.736Z,101149.45
2023-01-29T02:30:30.810Z,101150.75
2023-01-29T02:34:04.732Z,101149.28
2023-01-29T02:37:11.226Z,101148.80
2023-01-29T02:40:25.700Z,101153.65
2023-01-29T02:43:32.574Z,101141.90
2023-01-29T02:46:51.314Z,101139.88
2023-01-29T02:50:03.728Z,101134.45
2023-01-29T02:53:21.462Z,101128.78
2023-01-29T02:56:53.226Z,101126.16
2023-01-29T03:00:13.592Z,101127.36
2023-01-29T03:03:26.864Z,101124.96
2023-01-29T03:06:35.281Z,101123.28
2023-01-29T03:09:50.219Z,101129.05
2023-01-29T03:13:05.634Z,101122.84
2023-01-29T03:16:28.220Z,101121.84
2023-01-29T03:19:39.883Z,101115.98
2023-01-29T03:22:56.966Z,101115.40
2023-01-29T03:26:19.863Z,101107.60
2023-01-29T03:29:43.443Z,101113.65
2023-01-29T03:32:52.266Z,101107.29
2023-01-29T03:36:02.621Z,101103.13
2023-01-29T03:39:11.587Z,101105.06
2023-01-29T03:42:46.601Z,101105.67
2023-01-29T03:45:57.948Z,101103.08
2023-01-29T03:49:32.366Z,101101.64
2023-01-29T03:52:55.886Z,101100.46
2023-01-29T03:56:10.234Z,101103.24
2023-01-29T03:59:22.870Z,101106.14
2023-01-29T04:03:18.094Z,101112.56
2023-01-29T04:06:28.199Z,101109.30
2023-01-29T04:10:05.648Z,101099.95
2023-01-29T04:13:14.271Z,101098.16
2023-01-29T04:16:35.445Z,101097.73
2023-01-29T04:20:01.509Z,101094.53
2023-01-29T04:23:19.786Z,101089.02
2023-01-29T04:26:51.226Z,101088.64
2023-01-29T04:30:12.847Z,101087.58
2023-01-29T04:33:34.866Z,101079.77
2023-01-29T04:36:52.828Z,101074.67
2023-01-29T04:40:09.815Z,101071.96
2023-01-29T04:43:34.557Z,101071.38
2023-01-29T04:46:50.663Z,101072.67
2023-01-29T04:50:19.484Z,101065.42
2023-01-29T04:53:37.396Z,101070.86
2023-01-29T04:57:10.603Z,101067.23
2023-01-29T05:00:21.381Z,101062.34
2023-01-29T05:03:27.294Z,101061.69
2023-01-29T05:06:32.777Z,101054.27
2023-01-29T05:09:38.842Z,101051.02
2023-01-29T05:12:47.162Z,101052.00
2023-01-29T05:16:02.974Z,101052.63
2023-01-29T05:19:07.477Z,101054.39
2023-01-29T05:22:13.951Z,101062.37
2023-01-29T05:25:25.139Z,101060.79
2023-01-29T05:28:29.249Z,101054.80
2023-01-29T05:31:33.208Z,101061.27
2023-01-29T05:34:37.239Z,101058.89
2023-01-29T05:37:41.307Z,101058.08
2023-01-29T05:40:45.995Z,101046.77
2023-01-29T05:43:49.951Z,101038.89
2023-01-29T05:46:54.046Z,101035.30
2023-01-29T05:49:58.003Z,101033.75
2023-01-29T05:53:02.601Z,101032.27
2023-01-29T05:56:06.733Z,101026.87
2023-01-29T05:59:10.747Z,101029.81
2023-01-29T06:02:14.763Z,101028.89
2023-01-29T06:05:18.818Z,101030.70
2023-01-29T06:08:22.793Z,101030.17
2023-01-29T06:11:26.811Z,101032.69
2023-01-29T06:14:30.727Z,101037.00
2023-01-29T06:17:34.683Z,101039.59
2023-01-29T06:20:39.332Z,101042.92
2023-01-29T06:23:43.286Z,101046.53
2023-01-29T06:26:47.276Z,101049.85
2023-01-29T06:29:51.186Z,101039.79
2023-01-29T06:32:58.947Z,101038.00
2023-01-29T06:36:04.747Z,101042.48
2023-01-29T06:39:08.765Z,101041.86
2023-01-29T06:42:12.801Z,101041.57
2023-01-29T06:45:16.927Z,101046.26
2023-01-29T06:48:21.604Z,101049.79
2023-01-29T06:51:25.671Z,101050.02
2023-01-29T06:54:29.713Z,101051.59
2023-01-29T06:57:33.695Z,101049.00
2023-01-29T07:00:38.627Z,101048.17
2023-01-29T07:03:43.589Z,101046.08
2023-01-29T07:06:47.571Z,101048.84
2023-01-29T07:09:51.515Z,101046.83
2023-01-29T07:12:55.529Z,101048.14
2023-01-29T07:16:06.244Z,101037.38
2023-01-29T07:19:10.205Z,101023.58
2023-01-29T07:22:14.418Z,101011.60
2023-01-29T07:25:18.325Z,101008.02
2023-01-29T07:28:23.055Z,101015.10
2023-01-29T07:31:27.178Z,101023.66
2023-01-29T07:34:31.268Z,101023.32
2023-01-29T07:37:35.194Z,101018.27
2023-01-29T07:40:39.181Z,101021.47
2023-01-29T07:43:43.251Z,101030.58
2023-01-29T07:46:47.164Z,101032.83
2023-01-29T07:49:51.056Z,101035.87
2023-01-29T07:52:55.194Z,101041.58
2023-01-29T07:55:59.212Z,101043.98
2023-01-29T07:59:03.431Z,101040.25
2023-01-29T08:02:09.376Z,101038.19
2023-01-29T08:05:13.385Z,101032.86
2023-01-29T08:08:17.276Z,101024.75
2023-01-29T08:11:21.236Z,101016.48
2023-01-29T08:14:25.143Z,101010.46
2023-01-29T08:17:29.052Z,101017.17
2023-01-29T08:20:33.764Z,101021.80
2023-01-29T08:23:37.668Z,101020.05
2023-01-29T08:26:41.621Z,101012.26
2023-01-29T08:29:45.524Z,101009.75
2023-01-29T08:32:49.472Z,101009.91
2023-01-29T08:35:53.695Z,101007.81
2023-01-29T08:38:57.783Z,101005.33
2023-01-29T08:42:01.684Z,101004.77
2023-01-29T08:45:06.704Z,101003.23
2023-01-29T08:48:11.161Z,101004.01
2023-01-29T08:51:15.181Z,101008.92
2023-01-29T08:54:19.080Z,101010.36
2023-01-29T08:57:23.020Z,100999.70
2023-01-29T09:00:26.976Z,101005.83
2023-01-29T09:03:30.984Z,101004.87
2023-01-29T09:06:35.256Z,100996.91
2023-01-29T09:09:39.155Z,100994.05
2023-01-29T09:12:43.187Z,100985.05
2023-01-29T09:15:47.200Z,100979.27
2023-01-29T09:18:52.756Z,100973.92
2023-01-29T09:21:56.647Z,100965.19
2023-01-29T09:25:00.579Z,100954.95
2023-01-29T09:28:04.889Z,100945.49
2023-01-29T09:31:08.848Z,100938.33
2023-01-29T09:34:12.830Z,100933.88
2023-01-29T09:37:17.872Z,100933.58
2023-01-29T09:40:28.970Z,100936.77
2023-01-29T09:43:45.978Z,100939.83
2023-01-29T09:46:54.084Z,100932.88
2023-01-29T09:50:05.721Z,100935.77
2023-01-29T09:53:20.025Z,100936.29
2023-01-29T09:56:29.197Z,100931.43
2023-01-29T09:59:33.164Z,100924.20
2023-01-29T10:02:43.359Z,100918.25
2023-01-29T10:06:12.257Z,100911.70
2023-01-29T10:09:44.333Z,100903.47
2023-01-29T10:13:19.539Z,100898.70
2023-01-29T10:16:45.473Z,100904.20
2023-01-29T10:20:31.397Z,100900.55
2023-01-29T10:23:44.207Z,100889.86
2023-01-29T10:26:49.682Z,100893.80
2023-01-29T10:29:55.527Z,100893.17
2023-01-29T10:33:03.513Z,100885.45
2023-01-29T10:36:13.248Z,100880.55
2023-01-29T10:39:22.684Z,100879.77
2023-01-29T10:42:35.555Z,100887.06
2023-01-29T10:45:50.117Z,100880.27
2023-01-29T10:49:08.771Z,100878.88
2023-01-29T10:52:28.048Z,100879.80
2023-01-29T10:55:42.712Z,100877.90
2023-01-29T10:58:54.466Z,100880.00
2023-01-29T11:02:00.355Z,100874.90
2023-01-29T11:05:15.486Z,100869.93
2023-01-29T11:08:28.451Z,100868.98
2023-01-29T11:11:47.850Z,100861.25
2023-01-29T11:14:57.282Z,100851.85
2023-01-29T11:18:16.288Z,100848.91
2023-01-29T11:21:20.684Z,100847.13
2023-01-29T11:24:25.794Z,100847.95
2023-01-29T11:27:35.450Z,100843.77
2023-01-29T11:30:41.370Z,100836.38
2023-01-29T11:33:46.528Z,100831.24
2023-01-29T11:36:59.401Z,100820.77
2023-01-29T11:40:35.004Z,100811.45
2023-01-29T11:43:38.970Z,100805.86
2023-01-29T11:46:43.028Z,100800.98
2023-01-29T11:49:53.858Z,100791.95
2023-01-29T11:53:01.771Z,100788.29
2023-01-29T11:56:27.803Z,100786.45
2023-01-29T11:59:50.022Z,100786.96
2023-01-29T12:02:57.849Z,100789.93
2023-01-29T12:06:21.932Z,100781.38
2023-01-29T12:09:28.329Z,100774.85
2023-01-29T12:12:42.454Z,100772.30
2023-01-29T12:15:48.121Z,100770.71
2023-01-29T12:19:04.623Z,100764.27
2023-01-29T12:22:25.021Z,100759.71
2023-01-29T12:25:53.461Z,100750.47
2023-01-29T12:29:20.421Z,100741.41
2023-01-29T12:32:39.730Z,100739.63
2023-01-29T12:35:50.177Z,100739.92
2023-01-29T12:38:55.430Z,100740.29
2023-01-29T12:42:05.210Z,100738.48
2023-01-29T12:45:10.965Z,100736.86
2023-01-29T12:48:23.530Z,100733.48
2023-01-29T12:52:00.870Z,100725.98
2023-01-29T12:55:26.404Z,100717.91
2023-01-29T12:58:38.171Z,100713.48
2023-01-29T13:02:12.405Z,100701.81
2023-01-29T13:05:16.733Z,100700.52
2023-01-29T13:08:23.526Z,100701.65
2023-01-29T13:11:41.457Z,100694.82
2023-01-29T13:14:56.530Z,100702.23
2023-01-29T13:18:36.800Z,100704.95
2023-01-29T13:21:43.896Z,100718.20
2023-01-29T13:25:02.314Z,100722.40
2023-01-29T13:28:17.921Z,100721.48
2023-01-29T13:31:29.714Z,100722.61
2023-01-29T13:34:45.067Z,100722.61
2023-01-29T13:37:54.530Z,100723.04
2023-01-29T13:41:04.881Z,100723.01
2023-01-29T13:44:21.415Z,100727.98
2023-01-29T13:47:30.451Z,100718.17
2023-01-29T13:50:38.881Z,100708.70
2023-01-29T13:53:44.292Z,100704.55
2023-01-29T13:57:00.219Z,100690.27
2023-01-29T14:00:06.070Z,100685.34
2023-01-29T14:03:11.940Z,100685.25
2023-01-29T14:06:38.500Z,100687.72
2023-01-29T14:09:42.493Z,100673.85
2023-01-29T14:12:48.361Z,100679.84
2023-01-29T14:16:18.724Z,100681.80
2023-01-29T14:19:24.473Z,100690.52
2023-01-29T14:22:30.403Z,100701.11
2023-01-29T14:25:38.007Z,100709.45
2023-01-29T14:28:43.047Z,100717.13
2023-01-29T14:32:11.946Z,100719.30
2023-01-29T14:35:18.911Z,100718.61
2023-01-29T14:38:26.734Z,100713.76
2023-01-29T14:41:33.493Z,100700.95
2023-01-29T14:45:06.436Z,100701.82
2023-01-29T14:48:10.505Z,100693.98
2023-01-29T14:51:16.754Z,100684.45
2023-01-29T14:54:28.080Z,100673.39
2023-01-29T14:57:33.147Z,100676.00
2023-01-29T15:00:38.828Z,100682.55
2023-01-29T15:03:52.532Z,100686.45
2023-01-29T15:07:06.609Z,100690.77
2023-01-29T15:10:43.763Z,100688.06
2023-01-29T15:13:53.546Z,100693.95
2023-01-29T15:17:10.245Z,100694.29
2023-01-29T15:20:38.204Z,100686.13
2023-01-29T15:23:44.273Z,100679.45
2023-01-29T15:26:48.412Z,100677.36
2023-01-29T15:30:00.096Z,100675.64
2023-01-29T15:33:04.755Z,100675.50
2023-01-29T15:36:19.274Z,100667.97
2023-01-29T15:39:25.529Z,100668.02
2023-01-29T15:42:44.708Z,100668.48
2023-01-29T15:45:50.301Z,100657.25
2023-01-29T15:48:57.304Z,100657.25
2023-01-29T15:52:07.820Z,100653.40
2023-01-29T15:55:15.126Z,100654.66
2023-01-29T15:58:28.342Z,100650.61
2023-01-29T16:01:32.673Z,100646.95
2023-01-29T16:04:36.786Z,100645.89
2023-01-29T16:07:42.282Z,100642.93
2023-01-29T16:10:50.177Z,100642.66
2023-01-29T16:13:57.436Z,100647.79
2023-01-29T16:17:35.562Z,100642.88
2023-01-29T16:20:45.605Z,100645.55
2023-01-29T16:23:52.283Z,100643.45
2023-01-29T16:27:02.551Z,100646.73
2023-01-29T16:30:07.604Z,100646.98
2023-01-29T16:33:15.084Z,100645.00
2023-01-29T16:36:21.883Z,100646.70
2023-01-29T16:39:38.550Z,100650.68
2023-01-29T16:42:42.596Z,100648.94
2023-01-29T16:46:25.303Z,100646.86
2023-01-29T16:49:29.209Z,100641.13
2023-01-29T16:52:34.791Z,100643.64
2023-01-29T16:55:41.768Z,100644.30
2023-01-29T16:58:50.783Z,100645.05
2023-01-29T17:01:56.032Z,100648.61
2023-01-29T17:05:08.514Z,100647.69
2023-01-29T17:08:33.772Z,100647.19
2023-01-29T17:11:41.795Z,100645.66
2023-01-29T17:14:57.800Z,100643.77
2023-01-29T17:18:02.419Z,100642.50
2023-01-29T17:21:06.321Z,100634.74
2023-01-29T17:24:10.232Z,100626.19
2023-01-29T17:27:19.986Z,100620.92
2023-01-29T17:30:28.735Z,100615.37
2023-01-29T17:33:33.661Z,100615.38
2023-01-29T17:36:37.663Z,100615.02
2023-01-29T17:39:42.815Z,100607.98
2023-01-29T17:42:47.203Z,100601.29
2023-01-29T17:45:51.577Z,100591.44
2023-01-29T17:48:55.770Z,100586.81
2023-01-29T17:52:00.187Z,100579.59
2023-01-29T17:55:04.983Z,100570.48
2023-01-29T17:58:16.110Z,100562.05
2023-01-29T18:01:20.006Z,100550.76
2023-01-29T18:04:24.238Z,100539.94
2023-01-29T18:07:28.263Z,100543.18
2023-01-29T18:10:32.168Z,100536.91
2023-01-29T18:13:36.342Z,100532.73
2023-01-29T18:16:42.039Z,100526.86
2023-01-29T18:19:46.067Z,100518.91
2023-01-29T18:22:50.596Z,100513.38
2023-01-29T18:25:57.688Z,100508.02
2023-01-29T18:29:01.699Z,100498.85
2023-01-29T18:32:06.022Z,100493.23
2023-01-29T18:35:10.238Z,100493.49
2023-01-29T18:38:14.263Z,100492.49
2023-01-29T18:41:18.274Z,100495.83
2023-01-29T18:44:22.190Z,100490.85
2023-01-29T18:47:26.203Z,100491.08
2023-01-29T18:50:30.169Z,100489.09
2023-01-29T18:53:34.123Z,100487.32
2023-01-29T18:56:38.151Z,100493.30
2023-01-29T19:00:02.934Z,100484.56
2023-01-29T19:03:06.840Z,100482.09
2023-01-29T19:06:11.829Z,100479.31
2023-01-29T19:09:16.333Z,100481.57
2023-01-29T19:12:21.273Z,100471.45
2023-01-29T19:15:25.502Z,100472.23
2023-01-29T19:18:29.504Z,100481.19
2023-01-29T19:21:35.985Z,100476.46
2023-01-29T19:24:41.131Z,100481.67
2023-01-29T19:27:45.972Z,100479.02
2023-01-29T19:30:50.123Z,100477.88
2023-01-29T19:33:54.873Z,100474.19
2023-01-29T19:36:58.703Z,100467.38
2023-01-29T19:40:02.664Z,100463.34
2023-01-29T19:43:06.745Z,100459.35
2023-01-29T19:46:10.715Z,100455.50
2023-01-29T19:49:14.649Z,100453.20
2023-01-29T19:52:49.724Z,100450.74
2023-01-29T19:56:00.208Z,100451.34
2023-01-29T19:59:05.235Z,100451.70
2023-01-29T20:02:09.830Z,100442.00
2023-01-29T20:05:13.933Z,100439.07
2023-01-29T20:08:18.511Z,100430.95
2023-01-29T20:11:23.958Z,100422.95
2023-01-29T20:14:27.973Z,100425.70
2023-01-29T20:17:31.986Z,100416.25
2023-01-29T20:20:39.789Z,100413.92
2023-01-29T20:23:45.876Z,100410.98
2023-01-29T20:26:50.456Z,100406.34
2023-01-29T20:29:54.393Z,100399.20
2023-01-29T20:32:58.706Z,100393.83
2023-01-29T20:36:05.976Z,100393.59
2023-01-29T20:39:09.898Z,100385.31
2023-01-29T20:42:14.154Z,100381.20
2023-01-29T20:45:18.160Z,100373.90
2023-01-29T20:48:22.367Z,100363.36
2023-01-29T20:51:26.396Z,100355.79
2023-01-29T20:54:33.195Z,100351.70
2023-01-29T20:57:38.437Z,100348.66
2023-01-29T21:00:42.539Z,100343.05
2023-01-29T21:03:47.570Z,100342.10
2023-01-29T21:06:51.471Z,100341.85
2023-01-29T21:09:55.419Z,100337.23
2023-01-29T21:12:59.336Z,100330.77
2023-01-29T21:16:03.948Z,100328.28
2023-01-29T21:19:09.332Z,100325.77
2023-01-29T21:22:13.413Z,100323.40
2023-01-29T21:25:20.204Z,100317.95
2023-01-29T21:28:24.155Z,100319.02
2023-01-29T21:31:28.141Z,100315.99
2023-01-29T21:34:32.080Z,100322.61
2023-01-29T21:37:38.008Z,100322.51
2023-01-29T21:40:41.960Z,100323.61
2023-01-29T21:43:45.927Z,100319.80
2023-01-29T21:46:49.884Z,100318.87
2023-01-29T21:49:53.853Z,100317.35
2023-01-29T21:52:57.971Z,100317.13
2023-01-29T21:56:04.137Z,100316.66
2023-01-29T21:59:09.076Z,100309.65
2023-01-29T22:02:14.709Z,100302.14
2023-01-29T22:05:20.372Z,100293.30
2023-01-29T22:08:24.406Z,100286.04
2023-01-29T22:11:28.718Z,100283.98
2023-01-29T22:14:32.740Z,100278.92
2023-01-29T22:17:38.578Z,100274.63
2023-01-29T22:20:42.469Z,100264.09
2023-01-29T22:23:49.528Z,100260.89
2023-01-29T22:26:53.517Z,100250.96
2023-01-29T22:29:57.523Z,100244.20
2023-01-29T22:33:01.932Z,100238.58
2023-01-29T22:36:06.843Z,100231.23
2023-01-29T22:39:10.902Z,100224.80
2023-01-29T22:42:14.796Z,100219.63
2023-01-29T22:45:18.881Z,100210.11
2023-01-29T22:48:23.767Z,100199.52
2023-01-29T22:51:27.785Z,100187.20
2023-01-29T22:54:31.676Z,100176.44
2023-01-29T22:57:36.989Z,100171.89
2023-01-29T23:00:40.918Z,100165.07
2023-01-29T23:03:44.856Z,100161.02
2023-01-29T23:06:48.764Z,100156.86
2023-01-29T23:09:52.699Z,100147.31
2023-01-29T23:12:56.677Z,100141.88
2023-01-29T23:16:00.859Z,100136.71
2023-01-29T23:19:05.456Z,100130.59
2023-01-29T23:22:09.358Z,100125.13
2023-01-29T23:25:13.794Z,100117.44
2023-01-29T23:28:17.665Z,100110.24
2023-01-29T23:31:22.144Z,100109.31
2023-01-29T23:34:26.155Z,100104.42
2023-01-29T23:37:30.135Z,100099.45
2023-01-29T23:40:34.197Z,100091.29
2023-01-29T23:43:38.145Z,100090.44
2023-01-29T23:46:42.106Z,100080.17
2023-01-29T23:49:46.230Z,100078.35
2023-01-29T23:52:50.124Z,100080.42
2023-01-29T23:55:59.519Z,100072.94
2023-01-29T23:59:03.482Z,100071.13
